Time;durP1;ratioP1;P1;durP2;ratioP2;P2;SDS_P1;SDS_P2;PMS_P1;PMS_P2;Temp;Humidity;BMP_temperature;BMP_pressure;BME280_temperature;BME280_humidity;BME280_pressure;Samples;Min_cycle;Max_cycle;Signal;HPM_P1;HPM_P2
2023/06/01 00:01:37;;;;;;;4.63;4.30;;;17.90;99.90;;;;;;4943802;29;20181;-59
2023/06/01 00:04:03;;;;;;;5.63;5.13;;;17.90;99.90;;;;;;4949934;29;20260;-58
2023/06/01 00:06:30;;;;;;;4.90;4.50;;;17.90;99.90;;;;;;4954051;28;20452;-58
2023/06/01 00:08:58;;;;;;;6.60;4.90;;;17.80;99.90;;;;;;4954514;28;20405;-58
2023/06/01 00:11:27;;;;;;;5.10;4.60;;;17.80;99.90;;;;;;4954244;29;20405;-58
2023/06/01 00:13:53;;;;;;;7.40;5.17;;;17.80;99.90;;;;;;4954051;28;20420;-58
2023/06/01 00:16:19;;;;;;;5.47;4.97;;;17.80;99.90;;;;;;4953911;28;21046;-58
2023/06/01 00:18:45;;;;;;;5.33;4.83;;;17.70;99.90;;;;;;4969152;28;20207;-58
2023/06/01 00:21:11;;;;;;;5.17;4.77;;;17.70;99.90;;;;;;4953562;28;20409;-58
2023/06/01 00:23:40;;;;;;;5.53;4.87;;;17.60;99.90;;;;;;4954488;28;20416;-58
2023/06/01 00:26:07;;;;;;;4.87;4.47;;;17.60;99.90;;;;;;4947754;28;20441;-58
2023/06/01 00:28:34;;;;;;;5.03;4.60;;;17.60;99.90;;;;;;4943632;29;20423;-59
2023/06/01 00:31:00;;;;;;;4.83;4.53;;;17.50;99.90;;;;;;4954908;29;20508;-58
2023/06/01 00:33:26;;;;;;;5.33;4.93;;;17.50;99.90;;;;;;4944819;28;20847;-58
2023/06/01 00:35:52;;;;;;;5.00;4.50;;;17.50;99.90;;;;;;4921618;29;20457;-58
2023/06/01 00:38:18;;;;;;;5.20;4.80;;;17.50;99.90;;;;;;4941196;29;20906;-58
2023/06/01 00:40:44;;;;;;;5.87;5.37;;;17.40;99.90;;;;;;4946532;29;20406;-59
2023/06/01 00:43:11;;;;;;;5.97;5.00;;;17.40;99.90;;;;;;4937975;29;20281;-58
2023/06/01 00:45:40;;;;;;;6.30;5.70;;;17.40;99.90;;;;;;4938959;29;20421;-58
2023/06/01 00:48:06;;;;;;;5.00;4.70;;;17.30;99.90;;;;;;4938196;29;20481;-58
2023/06/01 00:50:32;;;;;;;5.27;4.77;;;17.30;99.90;;;;;;4944516;29;20979;-58
2023/06/01 00:53:00;;;;;;;5.30;4.90;;;17.30;99.90;;;;;;4947013;29;20446;-58
2023/06/01 00:55:27;;;;;;;5.10;4.70;;;17.30;99.90;;;;;;4949145;28;20455;-58
2023/06/01 00:57:55;;;;;;;7.30;5.20;;;17.30;99.90;;;;;;4947007;29;20424;-58
2023/06/01 01:00:22;;;;;;;5.17;4.80;;;17.30;99.90;;;;;;4948812;29;20444;-58
2023/06/01 01:02:49;;;;;;;6.47;5.73;;;17.20;99.90;;;;;;4949271;28;20465;-58
2023/06/01 01:05:16;;;;;;;5.83;5.17;;;17.20;99.90;;;;;;4946396;29;20504;-58
2023/06/01 01:08:02;;;;;;;5.90;5.40;;;17.20;99.90;;;;;;4948049;28;20995;-58
2023/06/01 01:10:46;;;;;;;5.57;5.07;;;17.10;99.90;;;;;;4947933;29;20764;-58
2023/06/01 01:13:17;;;;;;;5.40;5.00;;;17.10;99.90;;;;;;4944746;29;20953;-58
2023/06/01 01:15:59;;;;;;;5.33;4.93;;;17.10;99.90;;;;;;4946506;29;20418;-59
2023/06/01 01:18:42;;;;;;;6.10;5.50;;;17.10;99.90;;;;;;4944836;29;20916;-58
2023/06/01 01:21:22;;;;;;;5.67;5.07;;;17.00;99.90;;;;;;4956975;29;20415;-58
2023/06/01 01:24:09;;;;;;;6.47;5.80;;;17.00;99.90;;;;;;4957384;28;20408;-58
2023/06/01 01:26:51;;;;;;;6.23;5.70;;;16.90;99.90;;;;;;4956867;28;20467;-58
2023/06/01 01:29:20;;;;;;;10.53;7.30;;;16.80;99.90;;;;;;4956652;29;20765;-58
2023/06/01 01:31:49;;;;;;;6.60;6.00;;;16.90;99.90;;;;;;4956972;29;20420;-58
2023/06/01 01:34:19;;;;;;;8.33;5.60;;;16.90;99.90;;;;;;4953094;29;20409;-58
2023/06/01 01:36:46;;;;;;;6.70;5.20;;;16.90;99.90;;;;;;4947265;29;20433;-58
2023/06/01 01:39:12;;;;;;;6.17;5.60;;;16.80;99.90;;;;;;4945224;29;20410;-58
2023/06/01 01:41:38;;;;;;;5.97;5.23;;;16.80;99.90;;;;;;4945999;28;20882;-58
2023/06/01 01:44:04;;;;;;;7.30;5.40;;;16.80;99.90;;;;;;4945845;29;20703;-58
2023/06/01 01:47:12;;;;;;;5.67;5.17;;;16.70;99.90;;;;;;4948167;29;20224;-58
2023/06/01 01:49:44;;;;;;;7.20;5.80;;;16.70;99.90;;;;;;4945765;28;20560;-58
2023/06/01 01:52:26;;;;;;;7.83;6.97;;;16.60;99.90;;;;;;4945361;29;20412;-58
2023/06/01 01:54:53;;;;;;;8.10;7.30;;;16.60;99.90;;;;;;4949225;29;20409;-58
2023/06/01 01:57:22;;;;;;;9.20;7.70;;;16.50;99.90;;;;;;4955472;28;20424;-58
2023/06/01 01:59:49;;;;;;;9.57;8.67;;;16.50;99.90;;;;;;4948897;29;20411;-58
2023/06/01 02:02:15;;;;;;;9.93;8.43;;;16.50;99.90;;;;;;4945716;29;20413;-58
2023/06/01 02:04:42;;;;;;;10.63;8.80;;;16.40;99.90;;;;;;4952665;29;20971;-58
2023/06/01 02:07:08;;;;;;;11.30;9.73;;;16.40;99.90;;;;;;4956040;29;20456;-58
2023/06/01 02:09:34;;;;;;;10.90;9.33;;;16.30;99.90;;;;;;4956666;29;20400;-60
2023/06/01 02:12:00;;;;;;;12.50;10.50;;;16.30;99.90;;;;;;4956551;29;20420;-58
2023/06/01 02:14:26;;;;;;;10.57;9.47;;;16.20;99.90;;;;;;4955669;29;20412;-58
2023/06/01 02:16:53;;;;;;;12.93;10.50;;;16.20;99.90;;;;;;4956545;29;20252;-58
2023/06/01 02:19:20;;;;;;;13.30;9.67;;;16.20;99.90;;;;;;4955930;28;20271;-58
2023/06/01 02:21:46;;;;;;;11.40;10.00;;;16.20;99.90;;;;;;4956487;28;20408;-58
2023/06/01 02:24:12;;;;;;;11.30;9.87;;;16.20;99.90;;;;;;4955305;28;20818;-58
2023/06/01 02:26:38;;;;;;;12.03;10.13;;;16.20;99.90;;;;;;4954736;29;20576;-58
2023/06/01 02:29:07;;;;;;;12.70;9.80;;;16.20;99.90;;;;;;4955771;28;20541;-58
2023/06/01 02:31:36;;;;;;;11.93;9.97;;;16.20;99.90;;;;;;4956151;28;20425;-58
2023/06/01 02:34:02;;;;;;;15.70;10.30;;;16.20;99.90;;;;;;4956313;29;20400;-59
2023/06/01 02:36:31;;;;;;;12.30;9.93;;;16.20;99.90;;;;;;4955167;29;20427;-58
2023/06/01 02:38:58;;;;;;;13.33;10.73;;;16.10;99.90;;;;;;4956112;28;20177;-58
2023/06/01 02:41:25;;;;;;;12.50;9.27;;;16.10;99.90;;;;;;4955192;29;20417;-58
2023/06/01 02:43:51;;;;;;;13.17;10.57;;;16.10;99.90;;;;;;4970228;28;20895;-58
2023/06/01 02:46:18;;;;;;;14.60;10.67;;;16.10;99.90;;;;;;4955332;29;20464;-58
2023/06/01 02:48:44;;;;;;;14.27;10.07;;;16.10;99.90;;;;;;4955792;29;20400;-58
2023/06/01 02:51:10;;;;;;;13.77;10.90;;;16.10;99.90;;;;;;4954614;28;20424;-58
2023/06/01 02:53:36;;;;;;;12.80;10.80;;;16.00;99.90;;;;;;4955829;29;20404;-58
2023/06/01 02:56:01;;;;;;;15.53;10.93;;;16.00;99.90;;;;;;4955490;29;20224;-58
2023/06/01 02:58:29;;;;;;;14.30;11.37;;;16.00;99.90;;;;;;4954953;28;20180;-58
2023/06/01 03:00:58;;;;;;;13.83;11.10;;;16.00;99.90;;;;;;4955928;28;20184;-58
2023/06/01 03:03:24;;;;;;;16.67;12.33;;;15.90;99.90;;;;;;4954782;28;20421;-58
2023/06/01 03:05:51;;;;;;;14.53;11.47;;;15.80;99.90;;;;;;4955169;28;20926;-58
2023/06/01 03:08:17;;;;;;;17.03;11.70;;;15.80;99.90;;;;;;4954822;28;20932;-59
2023/06/01 03:10:43;;;;;;;19.10;11.80;;;15.70;99.90;;;;;;4955387;28;20447;-58
2023/06/01 03:13:09;;;;;;;16.43;12.60;;;15.60;99.90;;;;;;4955279;29;21018;-58
2023/06/01 03:15:37;;;;;;;14.90;12.27;;;15.60;99.90;;;;;;4955424;29;20418;-58
2023/06/01 03:18:03;;;;;;;14.87;11.57;;;15.60;99.90;;;;;;4955441;28;20183;-58
2023/06/01 03:20:29;;;;;;;15.37;11.90;;;15.60;99.90;;;;;;4953436;29;20518;-58
2023/06/01 03:22:55;;;;;;;15.20;10.87;;;15.60;99.90;;;;;;4955299;28;20483;-58
2023/06/01 03:25:21;;;;;;;19.27;12.60;;;15.60;99.90;;;;;;4954466;29;20495;-58
2023/06/01 03:27:46;;;;;;;19.77;12.93;;;15.60;99.90;;;;;;4955281;29;20259;-58
2023/06/01 03:30:13;;;;;;;18.37;13.43;;;15.70;99.90;;;;;;4954527;28;20271;-58
2023/06/01 03:32:43;;;;;;;15.00;11.53;;;15.70;99.90;;;;;;4955323;29;20184;-58
2023/06/01 03:35:09;;;;;;;16.77;13.17;;;15.70;99.90;;;;;;4954448;29;20895;-58
2023/06/01 03:37:36;;;;;;;15.53;12.70;;;15.70;99.90;;;;;;4955072;28;20408;-58
2023/06/01 03:40:10;;;;;;;18.33;14.10;;;15.70;99.90;;;;;;4954735;29;20800;-58
2023/06/01 03:42:42;;;;;;;18.30;14.03;;;15.60;99.90;;;;;;4954473;28;20479;-58
2023/06/01 03:45:09;;;;;;;17.00;15.30;;;15.60;99.90;;;;;;4954283;29;20461;-58
2023/06/01 03:47:35;;;;;;;15.73;12.97;;;15.60;99.90;;;;;;4953548;29;20827;-58
2023/06/01 03:50:03;;;;;;;17.70;13.93;;;15.60;99.90;;;;;;4954774;29;20407;-58
2023/06/01 03:52:29;;;;;;;16.80;13.27;;;15.50;99.90;;;;;;4953895;28;20407;-58
2023/06/01 03:54:57;;;;;;;17.27;14.10;;;15.30;99.90;;;;;;4954562;28;20412;-59
2023/06/01 03:57:23;;;;;;;21.30;14.90;;;15.20;99.90;;;;;;4954432;29;20435;-58
2023/06/01 03:59:50;;;;;;;18.10;13.10;;;15.10;99.90;;;;;;4954596;29;20420;-58
2023/06/01 04:02:19;;;;;;;22.77;14.83;;;15.10;99.90;;;;;;4954370;28;20241;-58
2023/06/01 04:04:45;;;;;;;19.40;14.90;;;15.20;99.90;;;;;;4954530;28;20414;-57
2023/06/01 04:07:14;;;;;;;19.37;15.30;;;15.10;99.90;;;;;;4953516;28;20856;-58
2023/06/01 04:09:43;;;;;;;19.77;15.07;;;15.10;99.90;;;;;;4954619;28;20493;-58
2023/06/01 04:12:12;;;;;;;19.60;14.43;;;15.00;99.90;;;;;;4954642;29;20422;-58
2023/06/01 04:14:38;;;;;;;20.37;14.77;;;15.00;99.90;;;;;;4954472;28;20428;-58
2023/06/01 04:17:05;;;;;;;20.43;13.97;;;15.00;99.90;;;;;;4954287;29;20422;-58
2023/06/01 04:19:35;;;;;;;20.17;15.43;;;15.00;99.90;;;;;;4954753;28;20200;-58
2023/06/01 04:22:01;;;;;;;24.03;15.20;;;15.00;99.90;;;;;;4954646;28;20509;-58
2023/06/01 04:24:27;;;;;;;24.67;15.47;;;14.90;99.90;;;;;;4953797;29;20184;-58
2023/06/01 04:26:53;;;;;;;18.77;15.63;;;14.90;99.90;;;;;;4954128;29;20813;-57
2023/06/01 04:29:22;;;;;;;19.43;14.57;;;14.90;99.90;;;;;;4953806;28;20462;-59
2023/06/01 04:31:47;;;;;;;22.90;13.77;;;14.90;99.90;;;;;;4954269;28;20753;-57
2023/06/01 04:34:15;;;;;;;24.47;14.90;;;14.90;99.90;;;;;;4953871;29;20439;-58
2023/06/01 04:36:41;;;;;;;19.83;15.43;;;15.00;99.90;;;;;;4953805;29;20454;-58
2023/06/01 04:39:07;;;;;;;22.50;17.00;;;15.00;99.90;;;;;;4954093;29;20179;-58
2023/06/01 04:41:35;;;;;;;18.90;16.23;;;15.00;99.90;;;;;;4953850;28;20290;-58
2023/06/01 04:44:07;;;;;;;22.33;14.83;;;14.90;99.90;;;;;;4954355;28;20556;-58
2023/06/01 04:46:35;;;;;;;19.33;14.30;;;14.90;99.90;;;;;;4953333;29;20208;-57
2023/06/01 04:49:00;;;;;;;21.87;14.57;;;14.90;99.90;;;;;;4954273;29;20831;-57
2023/06/01 04:51:28;;;;;;;20.10;15.10;;;14.90;99.90;;;;;;4953559;28;20408;-57
2023/06/01 04:53:55;;;;;;;22.60;18.40;;;14.80;99.90;;;;;;4954226;28;20184;-57
2023/06/01 04:56:26;;;;;;;21.53;14.87;;;14.80;99.90;;;;;;4953368;29;20455;-58
2023/06/01 04:58:53;;;;;;;21.80;15.10;;;14.80;99.90;;;;;;4954594;28;20450;-58
2023/06/01 05:01:24;;;;;;;19.90;14.50;;;14.80;99.90;;;;;;4953530;28;20408;-57
2023/06/01 05:03:51;;;;;;;20.30;18.00;;;14.80;99.90;;;;;;4954264;28;20815;-58
2023/06/01 05:06:19;;;;;;;23.23;18.00;;;14.80;99.90;;;;;;4953234;28;20422;-58
2023/06/01 05:08:45;;;;;;;19.90;17.33;;;14.80;99.90;;;;;;4953658;29;20828;-58
2023/06/01 05:11:11;;;;;;;24.50;18.07;;;14.80;99.90;;;;;;4954171;28;20442;-58
2023/06/01 05:13:38;;;;;;;22.83;16.83;;;14.80;99.90;;;;;;4953263;28;20626;-58
2023/06/01 05:16:06;;;;;;;23.00;15.90;;;14.80;99.90;;;;;;4957679;29;20430;-58
2023/06/01 05:18:32;;;;;;;23.17;18.13;;;14.70;99.90;;;;;;4956669;28;20401;-58
2023/06/01 05:20:59;;;;;;;26.87;17.80;;;14.70;99.90;;;;;;4957558;29;20453;-58
2023/06/01 05:23:25;;;;;;;24.20;18.20;;;14.70;99.90;;;;;;4956946;29;20422;-58
2023/06/01 05:25:52;;;;;;;22.53;17.00;;;14.70;99.90;;;;;;4957411;28;20411;-58
2023/06/01 05:28:18;;;;;;;26.77;18.87;;;14.60;99.90;;;;;;4956505;28;20603;-57
2023/06/01 05:30:44;;;;;;;24.00;18.07;;;14.60;99.90;;;;;;4956984;29;20867;-57
2023/06/01 05:33:09;;;;;;;22.70;18.77;;;14.60;99.90;;;;;;4957328;29;20176;-58
2023/06/01 05:35:35;;;;;;;18.90;16.10;;;14.60;99.90;;;;;;4956544;29;20186;-57
2023/06/01 05:38:01;;;;;;;19.90;15.10;;;14.60;99.90;;;;;;4957029;29;20177;-57
2023/06/01 05:40:27;;;;;;;21.03;16.30;;;14.60;99.90;;;;;;4956435;28;20265;-57
2023/06/01 05:42:52;;;;;;;20.10;17.77;;;14.50;99.90;;;;;;4956992;28;20540;-58
2023/06/01 05:45:18;;;;;;;22.07;16.50;;;14.60;99.90;;;;;;4956272;29;20537;-58
2023/06/01 05:47:46;;;;;;;19.47;15.17;;;14.60;99.90;;;;;;4956782;29;20245;-57
2023/06/01 05:50:12;;;;;;;21.90;16.90;;;14.60;99.90;;;;;;4957266;29;20514;-58
2023/06/01 05:52:39;;;;;;;20.73;16.43;;;14.60;99.90;;;;;;4956261;29;20406;-56
2023/06/01 05:55:05;;;;;;;21.20;14.50;;;14.60;99.90;;;;;;4956893;28;20181;-57
2023/06/01 05:57:31;;;;;;;19.20;17.03;;;14.60;99.90;;;;;;4956086;28;20888;-57
2023/06/01 05:59:56;;;;;;;24.20;16.70;;;14.60;99.90;;;;;;4956780;29;20444;-58
2023/06/01 06:02:22;;;;;;;22.40;16.77;;;14.70;99.90;;;;;;4955814;29;20657;-58
2023/06/01 06:04:48;;;;;;;17.37;14.83;;;14.70;99.90;;;;;;4955551;29;20170;-58
2023/06/01 06:07:14;;;;;;;18.83;15.57;;;14.70;99.90;;;;;;4956404;29;20797;-57
2023/06/01 06:09:40;;;;;;;19.03;15.13;;;14.80;99.90;;;;;;4956074;28;20218;-58
2023/06/01 06:12:07;;;;;;;18.40;14.90;;;14.70;99.90;;;;;;4956570;28;20818;-57
2023/06/01 06:14:33;;;;;;;20.60;14.13;;;14.80;99.90;;;;;;4956195;28;20421;-57
2023/06/01 06:17:00;;;;;;;18.73;14.40;;;14.80;99.90;;;;;;4956750;28;20413;-57
2023/06/01 06:19:26;;;;;;;18.97;16.67;;;14.80;99.90;;;;;;4955684;28;20419;-57
2023/06/01 06:21:51;;;;;;;18.33;15.40;;;14.80;99.90;;;;;;4956725;29;20441;-57
2023/06/01 06:24:17;;;;;;;21.07;16.17;;;14.70;99.90;;;;;;4955853;28;20890;-58
2023/06/01 06:26:43;;;;;;;17.57;14.60;;;14.70;99.90;;;;;;4955202;28;20261;-58
2023/06/01 06:29:10;;;;;;;21.90;16.77;;;14.70;99.90;;;;;;4955687;29;20527;-58
2023/06/01 06:31:36;;;;;;;22.03;16.43;;;14.60;99.90;;;;;;4955160;28;20216;-57
2023/06/01 06:34:01;;;;;;;21.53;17.10;;;14.60;99.90;;;;;;4955978;29;20846;-57
2023/06/01 06:36:27;;;;;;;18.47;15.57;;;14.70;99.90;;;;;;4955509;29;20734;-55
2023/06/01 06:38:53;;;;;;;20.20;16.20;;;14.70;99.90;;;;;;4955676;29;20177;-58
2023/06/01 06:41:18;;;;;;;25.97;17.83;;;14.60;99.90;;;;;;4955622;28;20616;-58
2023/06/01 06:43:44;;;;;;;20.77;16.33;;;14.50;99.90;;;;;;4955293;28;20242;-57
2023/06/01 06:46:10;;;;;;;23.60;16.83;;;14.60;99.90;;;;;;4955898;29;20257;-58
2023/06/01 06:48:35;;;;;;;20.93;17.27;;;14.60;99.90;;;;;;4970238;28;20252;-58
2023/06/01 06:51:02;;;;;;;22.30;16.53;;;14.70;99.90;;;;;;4952448;28;20623;-57
2023/06/01 06:53:30;;;;;;;21.63;17.73;;;14.70;99.90;;;;;;4944372;28;20218;-57
2023/06/01 06:55:56;;;;;;;19.80;15.50;;;14.60;99.90;;;;;;4946590;29;20491;-57
2023/06/01 06:58:21;;;;;;;20.50;15.30;;;14.70;99.90;;;;;;4946490;29;20416;-58
2023/06/01 07:00:47;;;;;;;25.00;18.17;;;14.70;99.90;;;;;;4947397;29;20727;-58
2023/06/01 07:03:13;;;;;;;23.07;17.70;;;14.70;99.90;;;;;;4946465;29;20233;-57
2023/06/01 07:05:39;;;;;;;25.87;19.10;;;14.70;99.90;;;;;;4943021;29;20974;-57
2023/06/01 07:08:05;;;;;;;22.93;18.90;;;14.80;99.90;;;;;;4946147;29;20204;-58
2023/06/01 07:10:31;;;;;;;28.30;20.73;;;14.80;99.90;;;;;;4945735;29;20410;-57
2023/06/01 07:12:57;;;;;;;30.10;20.20;;;14.90;99.90;;;;;;4945360;29;20572;-57
2023/06/01 07:15:25;;;;;;;32.83;21.80;;;14.90;99.90;;;;;;4944081;29;20424;-58
2023/06/01 07:17:50;;;;;;;31.00;24.17;;;15.00;99.90;;;;;;4946287;29;20197;-58
2023/06/01 07:20:16;;;;;;;35.60;25.10;;;15.00;99.90;;;;;;4944626;29;20400;-57
2023/06/01 07:22:42;;;;;;;42.10;27.83;;;15.00;99.90;;;;;;4944681;29;20428;-58
2023/06/01 07:25:09;;;;;;;43.20;28.17;;;14.90;99.90;;;;;;4946177;29;20554;-58
2023/06/01 07:27:37;;;;;;;47.73;31.30;;;14.90;99.90;;;;;;4942807;29;20289;-57
2023/06/01 07:30:04;;;;;;;41.90;29.60;;;14.90;99.90;;;;;;4947269;29;20947;-57
2023/06/01 07:32:29;;;;;;;47.23;30.40;;;15.00;99.90;;;;;;4943204;28;20404;-57
2023/06/01 07:34:57;;;;;;;48.93;32.13;;;15.00;99.90;;;;;;4944485;29;20434;-58
2023/06/01 07:37:26;;;;;;;43.77;29.43;;;15.00;99.90;;;;;;4944447;29;20598;-57
2023/06/01 07:39:55;;;;;;;46.67;28.97;;;15.10;99.90;;;;;;4960665;28;20847;-57
2023/06/01 07:42:21;;;;;;;44.83;29.90;;;15.10;99.90;;;;;;4944230;29;20422;-58
2023/06/01 07:44:47;;;;;;;40.93;26.50;;;15.20;99.90;;;;;;4943357;28;20450;-58
2023/06/01 07:47:13;;;;;;;46.47;29.87;;;15.30;99.90;;;;;;4945691;29;20454;-58
2023/06/01 07:49:39;;;;;;;44.80;27.70;;;15.30;99.90;;;;;;4942474;29;20185;-58
2023/06/01 07:52:06;;;;;;;38.77;27.10;;;15.40;99.90;;;;;;4945546;29;20420;-58
2023/06/01 07:54:37;;;;;;;43.90;28.60;;;15.50;99.90;;;;;;4944965;28;20445;-58
2023/06/01 07:57:04;;;;;;;43.90;27.40;;;15.60;99.90;;;;;;4944783;29;20941;-58
2023/06/01 07:59:33;;;;;;;42.57;27.10;;;15.70;99.90;;;;;;4947377;28;20412;-58
2023/06/01 08:02:00;;;;;;;39.40;27.70;;;15.80;99.90;;;;;;4943717;29;20416;-58
2023/06/01 08:04:27;;;;;;;46.67;28.13;;;15.90;99.90;;;;;;4943511;29;20487;-58
2023/06/01 08:06:53;;;;;;;39.23;27.17;;;15.80;99.90;;;;;;4942731;28;20816;-58
2023/06/01 08:09:23;;;;;;;44.47;29.10;;;15.80;99.90;;;;;;4944026;29;20421;-57
2023/06/01 08:11:50;;;;;;;40.10;27.87;;;15.80;99.90;;;;;;4944373;28;20440;-58
2023/06/01 08:14:16;;;;;;;43.17;27.53;;;15.80;99.90;;;;;;4944669;28;20777;-58
2023/06/01 08:16:42;;;;;;;41.57;28.10;;;16.00;99.90;;;;;;4944495;29;20418;-58
2023/06/01 08:19:08;;;;;;;45.33;27.73;;;16.00;99.90;;;;;;4943320;29;20410;-58
2023/06/01 08:21:34;;;;;;;40.53;28.13;;;16.00;99.90;;;;;;4944006;28;20424;-58
2023/06/01 08:24:01;;;;;;;38.07;26.70;;;16.00;99.90;;;;;;4943587;29;20554;-58
2023/06/01 08:26:28;;;;;;;41.67;28.70;;;16.00;99.90;;;;;;4942241;29;20462;-58
2023/06/01 08:28:53;;;;;;;41.87;28.17;;;16.10;99.90;;;;;;4947338;28;20508;-58
2023/06/01 08:31:24;;;;;;;43.50;30.20;;;16.30;99.90;;;;;;4939897;29;20500;-58
2023/06/01 08:33:51;;;;;;;41.77;27.40;;;16.60;99.90;;;;;;4935319;29;20189;-58
2023/06/01 08:36:18;;;;;;;42.63;29.47;;;16.90;99.90;;;;;;4945096;29;20422;-58
2023/06/01 08:38:44;;;;;;;38.33;28.07;;;17.00;99.90;;;;;;4944657;29;20413;-58
2023/06/01 08:41:44;;;;;;;42.20;30.23;;;17.20;99.90;;;;;;4943046;29;20413;-58
2023/06/01 08:44:11;;;;;;;39.67;27.83;;;17.60;99.90;;;;;;4942687;29;20977;-58
2023/06/01 08:46:41;;;;;;;46.37;33.10;;;17.70;99.60;;;;;;4943714;28;20456;-58
2023/06/01 08:49:10;;;;;;;39.23;28.13;;;17.90;99.90;;;;;;4946013;29;20881;-58
2023/06/01 08:51:38;;;;;;;39.43;28.27;;;17.90;98.40;;;;;;4945610;29;20865;-58
2023/06/01 08:54:05;;;;;;;39.40;30.47;;;18.00;98.50;;;;;;4948323;29;20406;-58
2023/06/01 08:56:31;;;;;;;33.70;27.07;;;18.10;99.20;;;;;;4946103;28;20766;-58
2023/06/01 08:58:59;;;;;;;36.60;27.13;;;18.20;98.60;;;;;;4951066;28;20420;-58
2023/06/01 09:01:25;;;;;;;36.70;27.13;;;18.40;97.80;;;;;;4942737;29;20422;-58
2023/06/01 09:03:51;;;;;;;37.03;26.27;;;18.40;97.30;;;;;;4950405;29;20746;-58
2023/06/01 09:06:17;;;;;;;33.87;25.80;;;18.40;96.60;;;;;;4951189;29;20436;-58
2023/06/01 09:08:46;;;;;;;33.57;25.43;;;18.50;96.40;;;;;;4947678;29;20564;-58
2023/06/01 09:11:15;;;;;;;30.70;24.27;;;18.60;97.30;;;;;;4946402;29;20410;-59
2023/06/01 09:13:41;;;;;;;33.07;26.10;;;18.80;98.50;;;;;;4948388;28;20471;-58
2023/06/01 09:16:07;;;;;;;32.97;25.03;;;18.90;96.00;;;;;;4940293;28;20186;-58
2023/06/01 09:18:33;;;;;;;33.37;24.83;;;19.00;97.50;;;;;;4951274;29;20408;-58
2023/06/01 09:21:15;;;;;;;32.40;25.17;;;19.10;96.20;;;;;;4948214;29;20440;-58
2023/06/01 09:23:44;;;;;;;31.70;26.03;;;19.20;97.00;;;;;;4947824;29;20779;-58
2023/06/01 09:26:14;;;;;;;26.20;23.33;;;19.40;96.40;;;;;;4938393;29;20414;-58
2023/06/01 09:28:55;;;;;;;29.57;22.03;;;19.60;93.90;;;;;;4944215;29;20429;-58
2023/06/01 09:31:41;;;;;;;27.67;21.43;;;19.80;95.80;;;;;;4956729;28;20408;-59
2023/06/01 09:34:09;;;;;;;28.67;22.40;;;20.00;94.20;;;;;;4956751;29;20423;-59
2023/06/01 09:36:35;;;;;;;30.27;23.60;;;20.00;95.80;;;;;;4956627;28;20423;-58
2023/06/01 09:39:07;;;;;;;25.60;19.90;;;20.10;93.40;;;;;;4957223;28;20420;-58
2023/06/01 09:41:55;;;;;;;24.67;20.07;;;20.10;91.30;;;;;;4956237;28;20798;-58
2023/06/01 09:44:38;;;;;;;23.67;20.70;;;20.10;92.00;;;;;;4956615;29;20502;-59
2023/06/01 09:47:10;;;;;;;21.43;19.13;;;20.30;93.20;;;;;;4957209;29;20494;-59
2023/06/01 09:49:44;;;;;;;19.80;17.70;;;20.50;93.40;;;;;;4956422;29;20463;-58
2023/06/01 09:52:14;;;;;;;18.03;16.10;;;20.70;92.30;;;;;;4956952;28;20783;-59
2023/06/01 09:54:46;;;;;;;21.10;17.90;;;20.90;93.30;;;;;;4956583;29;20428;-58
2023/06/01 09:57:19;;;;;;;20.13;17.77;;;21.00;91.50;;;;;;4956895;29;20413;-59
2023/06/01 09:59:46;;;;;;;19.20;17.17;;;21.00;90.20;;;;;;4955979;28;20783;-59
2023/06/01 10:02:14;;;;;;;21.40;19.10;;;21.10;88.40;;;;;;4956739;29;20453;-59
2023/06/01 10:04:42;;;;;;;18.47;16.50;;;21.20;89.90;;;;;;4956229;28;20529;-59
2023/06/01 10:07:11;;;;;;;19.90;17.80;;;20.90;88.00;;;;;;4956316;28;20480;-59
2023/06/01 10:09:38;;;;;;;20.30;18.30;;;21.10;92.60;;;;;;4955861;28;20420;-59
2023/06/01 10:12:05;;;;;;;20.27;17.53;;;21.20;92.90;;;;;;4956281;28;20424;-59
2023/06/01 10:14:32;;;;;;;19.70;17.57;;;21.50;91.70;;;;;;4955959;29;20448;-59
2023/06/01 10:16:58;;;;;;;19.27;16.70;;;21.60;91.40;;;;;;4956726;28;20487;-59
2023/06/01 10:19:24;;;;;;;17.37;15.60;;;21.70;88.60;;;;;;4955923;28;20415;-59
2023/06/01 10:21:50;;;;;;;18.67;16.77;;;21.70;88.40;;;;;;4956042;28;20405;-59
2023/06/01 10:24:19;;;;;;;19.20;17.17;;;21.80;90.40;;;;;;4956506;29;20212;-59
2023/06/01 10:26:51;;;;;;;21.30;18.33;;;21.90;87.30;;;;;;4955697;28;20259;-59
2023/06/01 10:29:18;;;;;;;21.80;17.00;;;21.90;87.50;;;;;;4956126;28;20420;-59
2023/06/01 10:31:44;;;;;;;18.27;15.97;;;22.00;86.40;;;;;;4955218;28;20413;-59
2023/06/01 10:34:11;;;;;;;22.63;18.70;;;22.00;90.40;;;;;;4956302;28;20782;-59
2023/06/01 10:36:53;;;;;;;19.00;16.60;;;21.90;85.20;;;;;;4955568;29;20208;-59
2023/06/01 10:39:32;;;;;;;18.33;16.40;;;21.80;87.70;;;;;;4956120;29;20428;-59
2023/06/01 10:42:12;;;;;;;18.17;16.33;;;21.70;86.60;;;;;;4955923;28;20503;-59
2023/06/01 10:44:41;;;;;;;17.30;14.73;;;21.80;89.70;;;;;;4955096;28;20468;-59
2023/06/01 10:47:13;;;;;;;18.80;16.80;;;22.00;86.20;;;;;;4955251;29;20474;-59
2023/06/01 10:49:51;;;;;;;19.13;15.40;;;22.10;86.30;;;;;;4955264;29;20423;-59
2023/06/01 10:52:38;;;;;;;16.80;14.43;;;22.30;86.70;;;;;;4956035;29;20416;-58
2023/06/01 10:55:06;;;;;;;20.60;18.47;;;22.40;85.60;;;;;;4955672;28;20421;-59
2023/06/01 10:57:36;;;;;;;19.23;16.70;;;22.50;84.90;;;;;;4954728;29;20792;-59
2023/06/01 11:00:16;;;;;;;15.63;14.03;;;22.60;86.00;;;;;;4955610;29;20440;-59
2023/06/01 11:03:12;;;;;;;16.00;14.40;;;22.60;90.30;;;;;;4954618;28;20409;-64
2023/06/01 11:05:37;;;;;;;16.00;13.87;;;22.70;84.40;;;;;;4941214;29;20436;-58
2023/06/01 11:08:08;;;;;;;16.40;13.50;;;22.90;87.50;;;;;;4955604;29;20462;-58
2023/06/01 11:10:58;;;;;;;18.73;16.73;;;22.90;84.80;;;;;;4954745;29;20189;-58
2023/06/01 11:13:35;;;;;;;14.17;12.77;;;23.00;86.60;;;;;;4954325;28;20421;-58
2023/06/01 11:16:22;;;;;;;14.43;12.90;;;23.10;85.70;;;;;;4955540;28;20539;-58
2023/06/01 11:18:58;;;;;;;19.37;13.37;;;23.30;85.20;;;;;;4955417;28;20409;-59
2023/06/01 11:21:33;;;;;;;13.87;12.47;;;23.40;83.10;;;;;;4955084;28;20452;-58
2023/06/01 11:24:01;;;;;;;14.63;12.43;;;23.40;82.30;;;;;;4955599;29;20467;-58
2023/06/01 11:26:38;;;;;;;16.67;13.23;;;23.40;82.10;;;;;;4954556;28;20401;-58
2023/06/01 11:29:09;;;;;;;15.70;13.70;;;23.50;83.40;;;;;;4955723;28;20413;-59
2023/06/01 11:31:40;;;;;;;14.07;12.80;;;23.60;82.00;;;;;;4954649;28;20447;-58
2023/06/01 11:34:10;;;;;;;16.50;13.57;;;23.70;82.60;;;;;;4955392;28;20393;-58
2023/06/01 11:36:38;;;;;;;13.60;12.20;;;23.70;82.20;;;;;;4954963;29;20408;-58
2023/06/01 11:39:08;;;;;;;14.00;12.60;;;23.70;82.70;;;;;;4954860;29;20421;-58
2023/06/01 11:41:35;;;;;;;13.30;12.10;;;23.90;83.60;;;;;;4954390;28;20411;-58
2023/06/01 11:44:01;;;;;;;16.43;14.73;;;24.00;83.30;;;;;;4954691;28;20453;-58
2023/06/01 11:46:28;;;;;;;17.10;12.40;;;24.10;80.00;;;;;;4954180;29;20433;-59
2023/06/01 11:49:04;;;;;;;14.77;13.07;;;24.10;79.60;;;;;;4954947;28;20419;-59
2023/06/01 11:51:31;;;;;;;13.23;11.87;;;24.10;79.70;;;;;;4954237;28;20397;-59
2023/06/01 11:53:57;;;;;;;15.13;13.53;;;24.20;82.20;;;;;;4954543;29;20786;-59
2023/06/01 11:56:35;;;;;;;13.63;12.23;;;24.40;81.20;;;;;;4954899;29;20405;-62
2023/06/01 11:59:08;;;;;;;14.27;12.60;;;24.50;80.20;;;;;;4954738;29;20539;-58
2023/06/01 12:01:36;;;;;;;14.57;13.10;;;24.50;78.10;;;;;;4954149;28;20463;-58
2023/06/01 12:04:04;;;;;;;18.60;12.93;;;24.30;79.30;;;;;;4954309;28;20823;-58
2023/06/01 12:06:30;;;;;;;14.83;13.17;;;24.30;81.00;;;;;;4953976;28;20448;-58
2023/06/01 12:08:57;;;;;;;15.00;13.50;;;24.10;77.30;;;;;;4954795;28;20409;-58
2023/06/01 12:11:28;;;;;;;20.13;18.23;;;24.10;78.90;;;;;;4954957;28;20433;-58
2023/06/01 12:13:55;;;;;;;15.53;13.90;;;24.10;79.30;;;;;;4955019;28;20472;-59
2023/06/01 12:16:21;;;;;;;16.33;14.00;;;23.90;77.90;;;;;;4954529;29;20450;-58
2023/06/01 12:18:47;;;;;;;17.40;15.57;;;23.70;79.00;;;;;;4953614;29;20402;-58
2023/06/01 12:21:13;;;;;;;17.20;15.50;;;23.40;80.00;;;;;;4954246;28;20441;-58
2023/06/01 12:23:40;;;;;;;16.90;13.87;;;23.40;87.60;;;;;;4953357;29;20617;-58
2023/06/01 12:26:07;;;;;;;16.53;14.93;;;23.50;84.10;;;;;;4954483;28;20423;-58
2023/06/01 12:28:54;;;;;;;15.27;13.87;;;23.40;81.00;;;;;;4952338;29;20495;-58
2023/06/01 12:31:21;;;;;;;15.73;14.23;;;23.40;83.20;;;;;;4954595;28;20413;-58
2023/06/01 12:33:48;;;;;;;18.00;14.23;;;23.60;84.50;;;;;;4953880;29;20625;-58
2023/06/01 12:36:34;;;;;;;14.77;12.50;;;23.60;82.90;;;;;;4954417;28;20503;-58
2023/06/01 12:39:04;;;;;;;13.40;12.07;;;23.70;83.30;;;;;;4954423;29;20917;-58